sensor_id;sensor_type;location;lat;lon;timestamp;temperature;humidity
4566;DHT22;2295;51.050;14.608;2022-08-19T00:01:45;20.30;95.40
4566;DHT22;2295;51.050;14.608;2022-08-19T00:04:21;20.30;96.30
4566;DHT22;2295;51.050;14.608;2022-08-19T00:06:50;20.20;96.40
4566;DHT22;2295;51.050;14.608;2022-08-19T00:09:19;20.20;97.00
4566;DHT22;2295;51.050;14.608;2022-08-19T00:11:49;20.20;97.20
4566;DHT22;2295;51.050;14.608;2022-08-19T00:14:18;20.10;96.90
4566;DHT22;2295;51.050;14.608;2022-08-19T00:16:49;20.10;96.90
4566;DHT22;2295;51.050;14.608;2022-08-19T00:19:18;20.10;96.80
4566;DHT22;2295;51.050;14.608;2022-08-19T00:21:46;20.00;96.90
4566;DHT22;2295;51.050;14.608;2022-08-19T00:24:15;20.00;96.90
4566;DHT22;2295;51.050;14.608;2022-08-19T00:26:44;19.90;97.10
4566;DHT22;2295;51.050;14.608;2022-08-19T00:29:15;19.90;97.10
4566;DHT22;2295;51.050;14.608;2022-08-19T00:31:44;19.90;97.40
4566;DHT22;2295;51.050;14.608;2022-08-19T00:34:15;19.80;97.40
4566;DHT22;2295;51.050;14.608;2022-08-19T00:36:43;19.70;97.70
4566;DHT22;2295;51.050;14.608;2022-08-19T00:39:12;19.60;97.90
4566;DHT22;2295;51.050;14.608;2022-08-19T00:41:40;19.40;98.20
4566;DHT22;2295;51.050;14.608;2022-08-19T00:44:10;19.30;98.50
4566;DHT22;2295;51.050;14.608;2022-08-19T00:46:42;19.30;99.50
4566;DHT22;2295;51.050;14.608;2022-08-19T00:49:25;19.30;99.50
4566;DHT22;2295;51.050;14.608;2022-08-19T00:51:59;19.20;99.90
4566;DHT22;2295;51.050;14.608;2022-08-19T00:54:29;19.10;99.90
4566;DHT22;2295;51.050;14.608;2022-08-19T00:56:58;19.10;99.90
4566;DHT22;2295;51.050;14.608;2022-08-19T00:59:28;19.00;99.90
4566;DHT22;2295;51.050;14.608;2022-08-19T01:02:17;18.90;99.90
4566;DHT22;2295;51.050;14.608;2022-08-19T01:04:47;18.80;99.90
4566;DHT22;2295;51.050;14.608;2022-08-19T01:07:16;18.80;99.90
4566;DHT22;2295;51.050;14.608;2022-08-19T01:09:45;18.70;99.90
4566;DHT22;2295;51.050;14.608;2022-08-19T01:12:14;18.70;99.90
4566;DHT22;2295;51.050;14.608;2022-08-19T01:14:43;18.80;99.90
4566;DHT22;2295;51.050;14.608;2022-08-19T01:17:11;18.80;99.90
4566;DHT22;2295;51.050;14.608;2022-08-19T01:19:42;18.90;99.90
4566;DHT22;2295;51.050;14.608;2022-08-19T01:22:17;18.90;99.90
4566;DHT22;2295;51.050;14.608;2022-08-19T01:24:57;18.90;99.90
4566;DHT22;2295;51.050;14.608;2022-08-19T01:27:25;18.90;99.90
4566;DHT22;2295;51.050;14.608;2022-08-19T01:30:10;18.90;99.90
4566;DHT22;2295;51.050;14.608;2022-08-19T01:32:39;18.90;99.90
4566;DHT22;2295;51.050;14.608;2022-08-19T01:35:07;18.90;99.90
4566;DHT22;2295;51.050;14.608;2022-08-19T01:37:43;18.90;99.90
4566;DHT22;2295;51.050;14.608;2022-08-19T01:40:15;18.90;99.90
4566;DHT22;2295;51.050;14.608;2022-08-19T01:42:43;18.90;99.90
4566;DHT22;2295;51.050;14.608;2022-08-19T01:45:12;18.90;99.90
4566;DHT22;2295;51.050;14.608;2022-08-19T01:47:40;18.90;99.90
4566;DHT22;2295;51.050;14.608;2022-08-19T01:50:17;18.80;99.90
4566;DHT22;2295;51.050;14.608;2022-08-19T01:52:47;18.80;99.90
4566;DHT22;2295;51.050;14.608;2022-08-19T01:55:30;18.80;99.90
4566;DHT22;2295;51.050;14.608;2022-08-19T01:58:02;18.80;99.90
4566;DHT22;2295;51.050;14.608;2022-08-19T02:00:32;18.80;99.90
4566;DHT22;2295;51.050;14.608;2022-08-19T02:03:01;18.80;99.90
4566;DHT22;2295;51.050;14.608;2022-08-19T02:05:30;18.90;99.90
4566;DHT22;2295;51.050;14.608;2022-08-19T02:07:58;18.80;99.90
4566;DHT22;2295;51.050;14.608;2022-08-19T02:10:26;18.80;99.90
4566;DHT22;2295;51.050;14.608;2022-08-19T02:12:56;18.80;99.90
4566;DHT22;2295;51.050;14.608;2022-08-19T02:15:24;18.70;99.90
4566;DHT22;2295;51.050;14.608;2022-08-19T02:17:53;18.70;99.90
4566;DHT22;2295;51.050;14.608;2022-08-19T02:20:21;18.70;99.90
4566;DHT22;2295;51.050;14.608;2022-08-19T02:22:49;18.70;99.90
4566;DHT22;2295;51.050;14.608;2022-08-19T02:25:19;18.60;99.90
4566;DHT22;2295;51.050;14.608;2022-08-19T02:27:47;18.60;99.90
4566;DHT22;2295;51.050;14.608;2022-08-19T02:30:18;18.60;99.90
4566;DHT22;2295;51.050;14.608;2022-08-19T02:32:46;18.60;99.90
4566;DHT22;2295;51.050;14.608;2022-08-19T02:35:14;18.60;99.90
4566;DHT22;2295;51.050;14.608;2022-08-19T02:37:43;18.60;99.90
4566;DHT22;2295;51.050;14.608;2022-08-19T02:40:30;18.70;99.90
4566;DHT22;2295;51.050;14.608;2022-08-19T02:43:00;18.70;99.90
4566;DHT22;2295;51.050;14.608;2022-08-19T02:45:33;18.60;99.90
4566;DHT22;2295;51.050;14.608;2022-08-19T02:48:07;18.70;99.90
4566;DHT22;2295;51.050;14.608;2022-08-19T02:50:48;18.70;99.90
4566;DHT22;2295;51.050;14.608;2022-08-19T02:53:22;18.80;99.90
4566;DHT22;2295;51.050;14.608;2022-08-19T02:55:51;18.90;99.90
4566;DHT22;2295;51.050;14.608;2022-08-19T02:58:20;18.90;99.90
4566;DHT22;2295;51.050;14.608;2022-08-19T03:00:54;19.00;99.90
4566;DHT22;2295;51.050;14.608;2022-08-19T03:03:22;19.00;99.90
4566;DHT22;2295;51.050;14.608;2022-08-19T03:05:51;19.10;99.90
4566;DHT22;2295;51.050;14.608;2022-08-19T03:08:23;19.10;99.90
4566;DHT22;2295;51.050;14.608;2022-08-19T03:10:52;19.10;99.90
4566;DHT22;2295;51.050;14.608;2022-08-19T03:13:21;19.10;99.90
4566;DHT22;2295;51.050;14.608;2022-08-19T03:15:52;19.00;99.90
4566;DHT22;2295;51.050;14.608;2022-08-19T03:18:20;19.10;99.90
4566;DHT22;2295;51.050;14.608;2022-08-19T03:20:52;19.00;99.90
4566;DHT22;2295;51.050;14.608;2022-08-19T03:23:21;19.00;99.90
4566;DHT22;2295;51.050;14.608;2022-08-19T03:25:51;19.10;99.90
4566;DHT22;2295;51.050;14.608;2022-08-19T03:28:40;19.10;99.90
4566;DHT22;2295;51.050;14.608;2022-08-19T03:31:20;19.10;99.90
4566;DHT22;2295;51.050;14.608;2022-08-19T03:34:10;19.20;99.90
4566;DHT22;2295;51.050;14.608;2022-08-19T03:36:39;19.20;99.90
4566;DHT22;2295;51.050;14.608;2022-08-19T03:39:09;19.30;99.90
4566;DHT22;2295;51.050;14.608;2022-08-19T03:41:39;19.30;99.90
4566;DHT22;2295;51.050;14.608;2022-08-19T03:44:12;19.30;99.90
4566;DHT22;2295;51.050;14.608;2022-08-19T03:46:46;19.30;99.90
4566;DHT22;2295;51.050;14.608;2022-08-19T03:49:15;19.30;99.90
4566;DHT22;2295;51.050;14.608;2022-08-19T03:51:44;19.40;99.90
4566;DHT22;2295;51.050;14.608;2022-08-19T03:54:15;19.40;99.90
4566;DHT22;2295;51.050;14.608;2022-08-19T03:56:46;19.40;99.90
4566;DHT22;2295;51.050;14.608;2022-08-19T03:59:17;19.30;99.90
4566;DHT22;2295;51.050;14.608;2022-08-19T04:01:47;19.30;99.90
4566;DHT22;2295;51.050;14.608;2022-08-19T04:04:15;19.30;99.90
4566;DHT22;2295;51.050;14.608;2022-08-19T04:06:45;19.30;99.90
4566;DHT22;2295;51.050;14.608;2022-08-19T04:09:14;19.30;99.90
4566;DHT22;2295;51.050;14.608;2022-08-19T04:11:46;19.30;99.90
4566;DHT22;2295;51.050;14.608;2022-08-19T04:14:16;19.30;99.90
4566;DHT22;2295;51.050;14.608;2022-08-19T04:16:47;19.30;99.90
4566;DHT22;2295;51.050;14.608;2022-08-19T04:19:17;19.30;99.90
4566;DHT22;2295;51.050;14.608;2022-08-19T04:21:49;19.30;99.90
4566;DHT22;2295;51.050;14.608;2022-08-19T04:24:18;19.30;99.90
4566;DHT22;2295;51.050;14.608;2022-08-19T04:26:47;19.30;99.90
4566;DHT22;2295;51.050;14.608;2022-08-19T04:29:17;19.40;99.90
4566;DHT22;2295;51.050;14.608;2022-08-19T04:31:50;19.40;99.90
4566;DHT22;2295;51.050;14.608;2022-08-19T04:34:22;19.40;99.90
4566;DHT22;2295;51.050;14.608;2022-08-19T04:36:52;19.40;99.90
4566;DHT22;2295;51.050;14.608;2022-08-19T04:39:28;19.30;99.90
4566;DHT22;2295;51.050;14.608;2022-08-19T04:42:11;19.30;99.90
4566;DHT22;2295;51.050;14.608;2022-08-19T04:44:57;19.40;99.90
4566;DHT22;2295;51.050;14.608;2022-08-19T04:47:27;19.40;99.90
4566;DHT22;2295;51.050;14.608;2022-08-19T04:50:16;19.50;99.90
4566;DHT22;2295;51.050;14.608;2022-08-19T04:52:44;19.50;99.90
4566;DHT22;2295;51.050;14.608;2022-08-19T04:55:12;19.60;99.90
4566;DHT22;2295;51.050;14.608;2022-08-19T04:57:41;19.60;99.90
4566;DHT22;2295;51.050;14.608;2022-08-19T05:00:10;19.70;99.90
4566;DHT22;2295;51.050;14.608;2022-08-19T05:02:40;19.80;99.90
4566;DHT22;2295;51.050;14.608;2022-08-19T05:05:08;19.90;99.90
4566;DHT22;2295;51.050;14.608;2022-08-19T05:07:38;20.00;99.90
4566;DHT22;2295;51.050;14.608;2022-08-19T05:10:08;20.10;99.90
4566;DHT22;2295;51.050;14.608;2022-08-19T05:12:36;20.20;99.90
4566;DHT22;2295;51.050;14.608;2022-08-19T05:15:06;20.20;99.90
4566;DHT22;2295;51.050;14.608;2022-08-19T05:17:35;20.30;99.90
4566;DHT22;2295;51.050;14.608;2022-08-19T05:20:08;20.50;99.90
4566;DHT22;2295;51.050;14.608;2022-08-19T05:22:53;20.70;99.90
4566;DHT22;2295;51.050;14.608;2022-08-19T05:25:22;20.90;99.90
4566;DHT22;2295;51.050;14.608;2022-08-19T05:27:52;21.00;99.90
4566;DHT22;2295;51.050;14.608;2022-08-19T05:30:20;21.10;99.90
4566;DHT22;2295;51.050;14.608;2022-08-19T05:33:08;21.10;99.90
4566;DHT22;2295;51.050;14.608;2022-08-19T05:35:39;21.10;99.90
4566;DHT22;2295;51.050;14.608;2022-08-19T05:38:08;21.10;99.90
4566;DHT22;2295;51.050;14.608;2022-08-19T05:40:38;21.10;99.90
4566;DHT22;2295;51.050;14.608;2022-08-19T05:43:07;21.00;99.90
4566;DHT22;2295;51.050;14.608;2022-08-19T05:45:39;21.00;99.90
4566;DHT22;2295;51.050;14.608;2022-08-19T05:48:09;21.00;99.90
4566;DHT22;2295;51.050;14.608;2022-08-19T05:50:40;20.90;99.90
4566;DHT22;2295;51.050;14.608;2022-08-19T05:53:09;20.90;99.90
4566;DHT22;2295;51.050;14.608;2022-08-19T05:55:37;20.90;99.90
4566;DHT22;2295;51.050;14.608;2022-08-19T05:58:06;20.80;99.90
4566;DHT22;2295;51.050;14.608;2022-08-19T06:00:35;20.80;99.90
4566;DHT22;2295;51.050;14.608;2022-08-19T06:03:04;20.70;99.90
4566;DHT22;2295;51.050;14.608;2022-08-19T06:05:41;20.70;99.90
4566;DHT22;2295;51.050;14.608;2022-08-19T06:08:19;20.60;99.90
4566;DHT22;2295;51.050;14.608;2022-08-19T06:11:16;20.60;99.90
4566;DHT22;2295;51.050;14.608;2022-08-19T06:13:45;20.60;99.90
4566;DHT22;2295;51.050;14.608;2022-08-19T06:16:26;20.60;99.90
4566;DHT22;2295;51.050;14.608;2022-08-19T06:18:55;20.60;99.90
4566;DHT22;2295;51.050;14.608;2022-08-19T06:21:27;20.60;99.90
4566;DHT22;2295;51.050;14.608;2022-08-19T06:23:57;20.60;99.90
4566;DHT22;2295;51.050;14.608;2022-08-19T06:26:26;20.70;99.90
4566;DHT22;2295;51.050;14.608;2022-08-19T06:28:55;20.70;99.90
4566;DHT22;2295;51.050;14.608;2022-08-19T06:31:26;20.80;99.90
4566;DHT22;2295;51.050;14.608;2022-08-19T06:33:54;20.80;99.90
4566;DHT22;2295;51.050;14.608;2022-08-19T06:36:27;21.00;99.90
4566;DHT22;2295;51.050;14.608;2022-08-19T06:38:59;21.10;99.90
4566;DHT22;2295;51.050;14.608;2022-08-19T06:41:29;21.10;99.90
4566;DHT22;2295;51.050;14.608;2022-08-19T06:43:57;21.20;99.90
4566;DHT22;2295;51.050;14.608;2022-08-19T06:46:26;21.30;99.90
4566;DHT22;2295;51.050;14.608;2022-08-19T06:49:00;21.30;99.90
4566;DHT22;2295;51.050;14.608;2022-08-19T06:51:30;21.30;99.90
4566;DHT22;2295;51.050;14.608;2022-08-19T06:53:59;21.30;99.90
4566;DHT22;2295;51.050;14.608;2022-08-19T06:56:30;21.30;99.90
4566;DHT22;2295;51.050;14.608;2022-08-19T06:59:03;21.20;99.90
4566;DHT22;2295;51.050;14.608;2022-08-19T07:01:35;21.20;99.90
4566;DHT22;2295;51.050;14.608;2022-08-19T07:04:05;21.20;99.90
4566;DHT22;2295;51.050;14.608;2022-08-19T07:06:39;21.20;99.90
4566;DHT22;2295;51.050;14.608;2022-08-19T07:09:12;21.30;99.90
4566;DHT22;2295;51.050;14.608;2022-08-19T07:11:45;21.40;99.90
4566;DHT22;2295;51.050;14.608;2022-08-19T07:14:14;21.60;99.90
4566;DHT22;2295;51.050;14.608;2022-08-19T07:16:47;21.70;99.90
4566;DHT22;2295;51.050;14.608;2022-08-19T07:19:16;21.90;99.90
4566;DHT22;2295;51.050;14.608;2022-08-19T07:21:47;21.90;99.90
4566;DHT22;2295;51.050;14.608;2022-08-19T07:24:17;22.10;99.80
4566;DHT22;2295;51.050;14.608;2022-08-19T07:26:45;22.10;99.70
4566;DHT22;2295;51.050;14.608;2022-08-19T07:29:18;22.10;99.90
4566;DHT22;2295;51.050;14.608;2022-08-19T07:31:50;22.20;99.30
4566;DHT22;2295;51.050;14.608;2022-08-19T07:34:20;22.10;99.50
4566;DHT22;2295;51.050;14.608;2022-08-19T07:36:50;22.00;99.50
4566;DHT22;2295;51.050;14.608;2022-08-19T07:39:25;21.80;99.60
4566;DHT22;2295;51.050;14.608;2022-08-19T07:41:54;21.80;99.90
4566;DHT22;2295;51.050;14.608;2022-08-19T07:44:23;21.80;99.90
4566;DHT22;2295;51.050;14.608;2022-08-19T07:46:54;21.90;99.90
4566;DHT22;2295;51.050;14.608;2022-08-19T07:49:24;21.90;99.90
4566;DHT22;2295;51.050;14.608;2022-08-19T07:51:55;22.10;99.10
4566;DHT22;2295;51.050;14.608;2022-08-19T07:54:26;22.00;99.20
4566;DHT22;2295;51.050;14.608;2022-08-19T07:56:55;21.90;99.50
4566;DHT22;2295;51.050;14.608;2022-08-19T07:59:23;21.70;99.90
4566;DHT22;2295;51.050;14.608;2022-08-19T08:01:51;21.60;99.90
4566;DHT22;2295;51.050;14.608;2022-08-19T08:04:20;21.60;99.90
4566;DHT22;2295;51.050;14.608;2022-08-19T08:07:08;21.50;99.90
4566;DHT22;2295;51.050;14.608;2022-08-19T08:09:57;21.50;99.90
4566;DHT22;2295;51.050;14.608;2022-08-19T08:12:31;21.50;99.90
4566;DHT22;2295;51.050;14.608;2022-08-19T08:15:05;21.60;99.90
4566;DHT22;2295;51.050;14.608;2022-08-19T08:17:38;21.60;99.90
4566;DHT22;2295;51.050;14.608;2022-08-19T08:20:17;21.80;99.90
4566;DHT22;2295;51.050;14.608;2022-08-19T08:22:47;21.80;99.90
4566;DHT22;2295;51.050;14.608;2022-08-19T08:25:34;21.90;99.80
4566;DHT22;2295;51.050;14.608;2022-08-19T08:28:04;22.00;99.40
4566;DHT22;2295;51.050;14.608;2022-08-19T08:30:37;22.00;99.30
4566;DHT22;2295;51.050;14.608;2022-08-19T08:33:11;22.00;99.20
4566;DHT22;2295;51.050;14.608;2022-08-19T08:35:40;21.80;99.70
4566;DHT22;2295;51.050;14.608;2022-08-19T08:38:11;21.90;99.70
4566;DHT22;2295;51.050;14.608;2022-08-19T08:40:43;21.90;99.20
4566;DHT22;2295;51.050;14.608;2022-08-19T08:43:20;22.00;98.90
4566;DHT22;2295;51.050;14.608;2022-08-19T08:45:53;22.00;99.30
4566;DHT22;2295;51.050;14.608;2022-08-19T08:48:31;22.00;99.30
4566;DHT22;2295;51.050;14.608;2022-08-19T08:51:03;22.00;98.40
4566;DHT22;2295;51.050;14.608;2022-08-19T08:53:36;21.90;98.90
4566;DHT22;2295;51.050;14.608;2022-08-19T08:56:09;21.80;98.70
4566;DHT22;2295;51.050;14.608;2022-08-19T08:58:51;21.70;99.30
4566;DHT22;2295;51.050;14.608;2022-08-19T09:01:21;21.70;99.30
4566;DHT22;2295;51.050;14.608;2022-08-19T09:03:50;21.70;99.30
4566;DHT22;2295;51.050;14.608;2022-08-19T09:06:25;21.60;99.60
4566;DHT22;2295;51.050;14.608;2022-08-19T09:09:03;21.60;99.20
4566;DHT22;2295;51.050;14.608;2022-08-19T09:11:47;21.50;99.70
4566;DHT22;2295;51.050;14.608;2022-08-19T09:14:32;21.60;99.40
4566;DHT22;2295;51.050;14.608;2022-08-19T09:17:19;21.70;99.40
4566;DHT22;2295;51.050;14.608;2022-08-19T09:19:58;21.80;98.90
4566;DHT22;2295;51.050;14.608;2022-08-19T09:22:27;21.70;99.20
4566;DHT22;2295;51.050;14.608;2022-08-19T09:24:57;21.70;99.30
4566;DHT22;2295;51.050;14.608;2022-08-19T09:27:26;21.60;99.10
4566;DHT22;2295;51.050;14.608;2022-08-19T09:30:17;21.60;99.30
4566;DHT22;2295;51.050;14.608;2022-08-19T09:32:46;21.60;99.60
4566;DHT22;2295;51.050;14.608;2022-08-19T09:35:20;21.50;99.30
4566;DHT22;2295;51.050;14.608;2022-08-19T09:37:50;21.70;99.80
4566;DHT22;2295;51.050;14.608;2022-08-19T09:40:26;21.90;99.50
4566;DHT22;2295;51.050;14.608;2022-08-19T09:42:56;22.20;98.70
4566;DHT22;2295;51.050;14.608;2022-08-19T09:45:39;22.30;98.10
4566;DHT22;2295;51.050;14.608;2022-08-19T09:48:08;22.50;98.00
4566;DHT22;2295;51.050;14.608;2022-08-19T09:50:44;22.60;97.30
4566;DHT22;2295;51.050;14.608;2022-08-19T09:53:18;22.70;97.40
4566;DHT22;2295;51.050;14.608;2022-08-19T09:55:54;22.90;97.30
4566;DHT22;2295;51.050;14.608;2022-08-19T09:58:22;23.30;95.80
4566;DHT22;2295;51.050;14.608;2022-08-19T10:00:54;23.40;95.20
4566;DHT22;2295;51.050;14.608;2022-08-19T10:03:23;23.40;94.70
4566;DHT22;2295;51.050;14.608;2022-08-19T10:05:58;23.20;95.10
4566;DHT22;2295;51.050;14.608;2022-08-19T10:08:31;23.10;95.20
4566;DHT22;2295;51.050;14.608;2022-08-19T10:11:03;22.80;96.20
4566;DHT22;2295;51.050;14.608;2022-08-19T10:13:52;22.50;96.70
4566;DHT22;2295;51.050;14.608;2022-08-19T10:16:22;22.50;96.90
4566;DHT22;2295;51.050;14.608;2022-08-19T10:18:56;22.40;97.20
4566;DHT22;2295;51.050;14.608;2022-08-19T10:21:27;22.30;97.70
4566;DHT22;2295;51.050;14.608;2022-08-19T10:23:59;22.20;98.20
4566;DHT22;2295;51.050;14.608;2022-08-19T10:26:32;22.20;97.80
4566;DHT22;2295;51.050;14.608;2022-08-19T10:29:02;22.20;98.00
4566;DHT22;2295;51.050;14.608;2022-08-19T10:31:35;22.30;98.00
4566;DHT22;2295;51.050;14.608;2022-08-19T10:34:23;22.40;97.80
4566;DHT22;2295;51.050;14.608;2022-08-19T10:36:55;22.80;97.40
4566;DHT22;2295;51.050;14.608;2022-08-19T10:39:27;23.00;96.70
4566;DHT22;2295;51.050;14.608;2022-08-19T10:41:58;22.90;96.60
4566;DHT22;2295;51.050;14.608;2022-08-19T10:44:27;22.90;96.80
4566;DHT22;2295;51.050;14.608;2022-08-19T10:46:59;22.90;96.70
4566;DHT22;2295;51.050;14.608;2022-08-19T10:49:27;22.80;96.70
4566;DHT22;2295;51.050;14.608;2022-08-19T10:51:56;22.70;97.10
4566;DHT22;2295;51.050;14.608;2022-08-19T10:54:47;22.60;96.90
4566;DHT22;2295;51.050;14.608;2022-08-19T10:57:35;22.40;97.20
4566;DHT22;2295;51.050;14.608;2022-08-19T11:00:24;22.50;97.50
4566;DHT22;2295;51.050;14.608;2022-08-19T11:02:52;22.90;97.20
4566;DHT22;2295;51.050;14.608;2022-08-19T11:05:20;23.20;96.00
4566;DHT22;2295;51.050;14.608;2022-08-19T11:07:50;23.50;95.20
4566;DHT22;2295;51.050;14.608;2022-08-19T11:10:19;23.70;94.90
4566;DHT22;2295;51.050;14.608;2022-08-19T11:12:50;23.80;94.50
4566;DHT22;2295;51.050;14.608;2022-08-19T11:15:21;23.80;93.80
4566;DHT22;2295;51.050;14.608;2022-08-19T11:17:51;23.70;93.80
4566;DHT22;2295;51.050;14.608;2022-08-19T11:20:21;23.40;94.30
4566;DHT22;2295;51.050;14.608;2022-08-19T11:22:51;23.40;95.10
4566;DHT22;2295;51.050;14.608;2022-08-19T11:25:20;23.50;94.40
4566;DHT22;2295;51.050;14.608;2022-08-19T11:27:50;23.70;94.10
4566;DHT22;2295;51.050;14.608;2022-08-19T11:30:19;23.90;94.50
4566;DHT22;2295;51.050;14.608;2022-08-19T11:32:47;24.00;93.10
4566;DHT22;2295;51.050;14.608;2022-08-19T11:35:16;24.00;92.90
4566;DHT22;2295;51.050;14.608;2022-08-19T11:37:46;23.90;93.40
4566;DHT22;2295;51.050;14.608;2022-08-19T11:40:15;23.90;93.70
4566;DHT22;2295;51.050;14.608;2022-08-19T11:42:43;24.00;93.40
4566;DHT22;2295;51.050;14.608;2022-08-19T11:45:26;24.10;92.80
4566;DHT22;2295;51.050;14.608;2022-08-19T11:47:56;24.10;92.20
4566;DHT22;2295;51.050;14.608;2022-08-19T11:50:24;24.20;92.40
4566;DHT22;2295;51.050;14.608;2022-08-19T11:52:54;24.30;92.30
4566;DHT22;2295;51.050;14.608;2022-08-19T11:55:22;24.50;91.10
4566;DHT22;2295;51.050;14.608;2022-08-19T11:57:51;24.70;90.90
4566;DHT22;2295;51.050;14.608;2022-08-19T12:00:19;24.80;90.10
4566;DHT22;2295;51.050;14.608;2022-08-19T12:02:49;25.10;89.60
4566;DHT22;2295;51.050;14.608;2022-08-19T12:05:18;25.40;87.60
4566;DHT22;2295;51.050;14.608;2022-08-19T12:07:46;25.60;86.90
4566;DHT22;2295;51.050;14.608;2022-08-19T12:10:14;26.20;86.40
4566;DHT22;2295;51.050;14.608;2022-08-19T12:12:45;26.60;82.20
4566;DHT22;2295;51.050;14.608;2022-08-19T12:15:25;26.70;81.50
4566;DHT22;2295;51.050;14.608;2022-08-19T12:18:05;26.70;81.10
4566;DHT22;2295;51.050;14.608;2022-08-19T12:20:35;26.60;79.50
4566;DHT22;2295;51.050;14.608;2022-08-19T12:23:03;26.70;81.00
4566;DHT22;2295;51.050;14.608;2022-08-19T12:25:32;26.70;79.70
4566;DHT22;2295;51.050;14.608;2022-08-19T12:28:01;26.60;80.20
4566;DHT22;2295;51.050;14.608;2022-08-19T12:30:30;26.50;81.30
4566;DHT22;2295;51.050;14.608;2022-08-19T12:32:59;26.50;81.10
4566;DHT22;2295;51.050;14.608;2022-08-19T12:35:28;26.40;81.50
4566;DHT22;2295;51.050;14.608;2022-08-19T12:37:57;26.50;80.30
4566;DHT22;2295;51.050;14.608;2022-08-19T12:40:26;26.60;79.60
4566;DHT22;2295;51.050;14.608;2022-08-19T12:42:55;26.70;79.40
4566;DHT22;2295;51.050;14.608;2022-08-19T12:45:23;26.70;78.70
4566;DHT22;2295;51.050;14.608;2022-08-19T12:47:52;26.80;78.60
4566;DHT22;2295;51.050;14.608;2022-08-19T12:50:21;27.00;81.50
4566;DHT22;2295;51.050;14.608;2022-08-19T12:52:51;27.30;77.70
4566;DHT22;2295;51.050;14.608;2022-08-19T12:55:19;27.50;76.40
4566;DHT22;2295;51.050;14.608;2022-08-19T12:57:47;27.70;77.10
4566;DHT22;2295;51.050;14.608;2022-08-19T13:00:19;28.30;73.90
4566;DHT22;2295;51.050;14.608;2022-08-19T13:02:50;28.80;70.30
4566;DHT22;2295;51.050;14.608;2022-08-19T13:05:20;29.40;68.90
4566;DHT22;2295;51.050;14.608;2022-08-19T13:07:52;29.80;66.70
4566;DHT22;2295;51.050;14.608;2022-08-19T13:10:23;29.60;66.00
4566;DHT22;2295;51.050;14.608;2022-08-19T13:12:55;29.20;65.90
4566;DHT22;2295;51.050;14.608;2022-08-19T13:15:23;28.90;67.10
4566;DHT22;2295;51.050;14.608;2022-08-19T13:17:53;28.80;67.50
4566;DHT22;2295;51.050;14.608;2022-08-19T13:20:23;29.10;66.00
4566;DHT22;2295;51.050;14.608;2022-08-19T13:22:54;29.30;67.80
4566;DHT22;2295;51.050;14.608;2022-08-19T13:25:24;29.70;66.30
4566;DHT22;2295;51.050;14.608;2022-08-19T13:27:53;30.50;65.30
4566;DHT22;2295;51.050;14.608;2022-08-19T13:30:22;31.00;61.30
4566;DHT22;2295;51.050;14.608;2022-08-19T13:33:08;31.00;59.30
4566;DHT22;2295;51.050;14.608;2022-08-19T13:35:46;30.80;59.20
4566;DHT22;2295;51.050;14.608;2022-08-19T13:38:17;30.80;58.10
4566;DHT22;2295;51.050;14.608;2022-08-19T13:40:48;30.50;59.10
4566;DHT22;2295;51.050;14.608;2022-08-19T13:43:18;30.10;60.50
4566;DHT22;2295;51.050;14.608;2022-08-19T13:45:50;29.30;61.50
4566;DHT22;2295;51.050;14.608;2022-08-19T13:48:25;28.50;64.20
4566;DHT22;2295;51.050;14.608;2022-08-19T13:50:54;27.90;69.20
4566;DHT22;2295;51.050;14.608;2022-08-19T13:53:24;27.30;70.20
4566;DHT22;2295;51.050;14.608;2022-08-19T13:55:52;27.00;73.50
4566;DHT22;2295;51.050;14.608;2022-08-19T13:58:21;26.80;74.40
4566;DHT22;2295;51.050;14.608;2022-08-19T14:00:50;26.90;74.30
4566;DHT22;2295;51.050;14.608;2022-08-19T14:03:18;26.90;75.40
4566;DHT22;2295;51.050;14.608;2022-08-19T14:05:46;27.00;76.20
4566;DHT22;2295;51.050;14.608;2022-08-19T14:08:14;27.00;74.90
4566;DHT22;2295;51.050;14.608;2022-08-19T14:10:44;26.90;75.20
4566;DHT22;2295;51.050;14.608;2022-08-19T14:13:15;27.00;76.20
4566;DHT22;2295;51.050;14.608;2022-08-19T14:15:44;26.90;74.60
4566;DHT22;2295;51.050;14.608;2022-08-19T14:18:13;26.70;76.20
4566;DHT22;2295;51.050;14.608;2022-08-19T14:20:41;26.80;77.20
4566;DHT22;2295;51.050;14.608;2022-08-19T14:23:09;26.80;77.10
4566;DHT22;2295;51.050;14.608;2022-08-19T14:25:39;26.80;77.80
4566;DHT22;2295;51.050;14.608;2022-08-19T14:28:08;26.80;78.30
4566;DHT22;2295;51.050;14.608;2022-08-19T14:30:37;26.80;77.40
4566;DHT22;2295;51.050;14.608;2022-08-19T14:33:06;26.90;77.40
4566;DHT22;2295;51.050;14.608;2022-08-19T14:35:35;27.00;76.50
4566;DHT22;2295;51.050;14.608;2022-08-19T14:38:04;27.00;75.80
4566;DHT22;2295;51.050;14.608;2022-08-19T14:40:33;26.80;76.90
4566;DHT22;2295;51.050;14.608;2022-08-19T14:43:03;27.00;77.80
4566;DHT22;2295;51.050;14.608;2022-08-19T14:45:35;27.20;76.40
4566;DHT22;2295;51.050;14.608;2022-08-19T14:48:07;27.30;75.90
4566;DHT22;2295;51.050;14.608;2022-08-19T14:50:46;27.40;75.80
4566;DHT22;2295;51.050;14.608;2022-08-19T14:53:16;27.60;75.00
4566;DHT22;2295;51.050;14.608;2022-08-19T14:55:45;27.40;75.60
4566;DHT22;2295;51.050;14.608;2022-08-19T14:58:14;27.50;75.90
4566;DHT22;2295;51.050;14.608;2022-08-19T15:00:58;28.00;74.40
4566;DHT22;2295;51.050;14.608;2022-08-19T15:03:27;28.50;72.20
4566;DHT22;2295;51.050;14.608;2022-08-19T15:05:56;28.50;71.20
4566;DHT22;2295;51.050;14.608;2022-08-19T15:08:25;28.10;72.00
4566;DHT22;2295;51.050;14.608;2022-08-19T15:10:54;27.90;72.50
4566;DHT22;2295;51.050;14.608;2022-08-19T15:13:22;27.60;73.90
4566;DHT22;2295;51.050;14.608;2022-08-19T15:15:52;27.20;76.00
4566;DHT22;2295;51.050;14.608;2022-08-19T15:18:22;26.90;77.40
4566;DHT22;2295;51.050;14.608;2022-08-19T15:20:50;26.60;78.50
4566;DHT22;2295;51.050;14.608;2022-08-19T15:23:19;26.30;80.60
4566;DHT22;2295;51.050;14.608;2022-08-19T15:25:48;26.00;81.00
4566;DHT22;2295;51.050;14.608;2022-08-19T15:28:23;25.80;83.00
4566;DHT22;2295;51.050;14.608;2022-08-19T15:30:52;25.70;83.40
4566;DHT22;2295;51.050;14.608;2022-08-19T15:33:21;25.60;83.80
4566;DHT22;2295;51.050;14.608;2022-08-19T15:35:50;25.50;85.00
4566;DHT22;2295;51.050;14.608;2022-08-19T15:38:18;25.30;85.60
4566;DHT22;2295;51.050;14.608;2022-08-19T15:40:48;25.20;86.50
4566;DHT22;2295;51.050;14.608;2022-08-19T15:43:17;25.00;87.30
4566;DHT22;2295;51.050;14.608;2022-08-19T15:45:47;24.90;88.20
4566;DHT22;2295;51.050;14.608;2022-08-19T15:48:16;25.10;88.00
4566;DHT22;2295;51.050;14.608;2022-08-19T15:50:45;25.30;86.90
4566;DHT22;2295;51.050;14.608;2022-08-19T15:53:13;25.50;85.70
4566;DHT22;2295;51.050;14.608;2022-08-19T15:55:44;25.60;85.70
4566;DHT22;2295;51.050;14.608;2022-08-19T15:58:14;25.70;85.10
4566;DHT22;2295;51.050;14.608;2022-08-19T16:01:04;25.80;84.70
4566;DHT22;2295;51.050;14.608;2022-08-19T16:03:54;25.70;84.20
4566;DHT22;2295;51.050;14.608;2022-08-19T16:06:45;25.50;85.30
4566;DHT22;2295;51.050;14.608;2022-08-19T16:09:14;25.50;85.90
4566;DHT22;2295;51.050;14.608;2022-08-19T16:11:43;25.40;85.40
4566;DHT22;2295;51.050;14.608;2022-08-19T16:14:23;25.40;85.50